Time;durP1;ratioP1;P1;durP2;ratioP2;P2;SDS_P1;SDS_P2;PMS_P1;PMS_P2;Temp;Humidity;BMP_temperature;BMP_pressure;BME280_temperature;BME280_humidity;BME280_pressure;Samples;Min_cycle;Max_cycle;Signal;HPM_P1;HPM_P2
2021/11/11 00:02:17;;;;;;;74.25;52.90;;;;;;;1.21;100.00;102341.63;5067636;28;20017;-66
2021/11/11 00:04:43;;;;;;;69.47;50.40;;;;;;;1.19;100.00;102335.41;5063826;28;20108;-64
2021/11/11 00:07:08;;;;;;;68.68;48.83;;;;;;;1.17;100.00;102337.91;5067476;28;20507;-64
2021/11/11 00:09:35;;;;;;;84.13;57.53;;;;;;;1.19;100.00;102336.31;5065204;28;20055;-63
2021/11/11 00:12:01;;;;;;;91.55;63.15;;;;;;;1.15;100.00;102336.91;5065995;28;20035;-64
2021/11/11 00:14:26;;;;;;;83.00;57.30;;;;;;;1.08;100.00;102333.78;5065531;28;20474;-64
2021/11/11 00:16:52;;;;;;;76.78;55.13;;;;;;;1.03;100.00;102329.19;5064896;28;20024;-63
2021/11/11 00:19:17;;;;;;;75.55;53.08;;;;;;;1.02;100.00;102324.78;5067036;28;20071;-64
2021/11/11 00:21:43;;;;;;;83.68;55.92;;;;;;;1.12;100.00;102317.56;5063807;28;20056;-63
2021/11/11 00:24:08;;;;;;;86.53;59.10;;;;;;;1.16;100.00;102311.75;5067074;28;20033;-63
2021/11/11 00:26:34;;;;;;;94.45;65.43;;;;;;;1.25;100.00;102317.56;5064485;28;20052;-63
2021/11/11 00:29:00;;;;;;;87.63;60.70;;;;;;;1.29;100.00;102309.16;5065665;28;20040;-64
2021/11/11 00:31:25;;;;;;;96.72;68.57;;;;;;;1.16;100.00;102306.53;5065450;28;20017;-63
2021/11/11 00:33:51;;;;;;;105.55;77.00;;;;;;;1.14;100.00;102306.44;5064165;28;20527;-64
2021/11/11 00:36:17;;;;;;;84.65;59.67;;;;;;;1.04;100.00;102311.84;5066728;28;20064;-64
2021/11/11 00:38:42;;;;;;;90.93;64.43;;;;;;;1.07;100.00;102304.25;5063117;28;20025;-64
2021/11/11 00:41:10;;;;;;;82.85;58.35;;;;;;;1.13;100.00;102302.03;5066615;28;20036;-64
2021/11/11 00:43:36;;;;;;;90.68;65.78;;;;;;;1.06;100.00;102296.31;5063987;28;20043;-63
2021/11/11 00:46:01;;;;;;;91.18;65.53;;;;;;;1.06;100.00;102305.03;5065419;28;20029;-63
2021/11/11 00:48:27;;;;;;;90.85;65.40;;;;;;;1.02;100.00;102300.41;5064972;28;20035;-63
2021/11/11 00:50:53;;;;;;;93.18;69.97;;;;;;;1.10;100.00;102301.84;5064190;28;20479;-64
2021/11/11 00:53:19;;;;;;;96.40;68.45;;;;;;;1.08;100.00;102305.13;5066232;28;20470;-64
2021/11/11 00:55:44;;;;;;;93.78;69.07;;;;;;;1.11;100.00;102302.75;5063185;28;20021;-63
2021/11/11 00:58:09;;;;;;;91.28;66.15;;;;;;;1.08;100.00;102299.91;5066367;28;20090;-63
2021/11/11 01:00:37;;;;;;;91.13;68.68;;;;;;;1.02;100.00;102301.34;5063658;28;20025;-63
2021/11/11 01:03:04;;;;;;;98.55;73.68;;;;;;;1.08;100.00;102302.53;5065085;28;20028;-63
2021/11/11 01:05:30;;;;;;;140.00;102.65;;;;;;;1.17;100.00;102298.84;5064288;28;20053;-63
2021/11/11 01:07:56;;;;;;;96.63;70.53;;;;;;;1.09;100.00;102296.53;5064070;28;20021;-63
2021/11/11 01:10:21;;;;;;;100.28;74.22;;;;;;;1.09;100.00;102296.53;5065451;28;20028;-65
2021/11/11 01:12:48;;;;;;;87.40;63.45;;;;;;;1.10;100.00;102298.34;5063169;28;20017;-63
2021/11/11 01:15:17;;;;;;;114.97;82.82;;;;;;;1.21;100.00;102300.84;5066024;28;20533;-64
2021/11/11 01:17:42;;;;;;;138.13;106.72;;;;;;;1.32;100.00;102291.09;5062644;28;20037;-66
2021/11/11 01:20:09;;;;;;;174.00;124.78;;;;;;;1.46;100.00;102293.72;5065590;28;20360;-65
2021/11/11 01:22:36;;;;;;;159.60;119.18;;;;;;;1.52;100.00;102288.91;5063388;28;20036;-63
2021/11/11 01:25:05;;;;;;;163.63;121.20;;;;;;;1.57;100.00;102303.13;5064837;28;20407;-66
2021/11/11 01:27:30;;;;;;;158.93;116.63;;;;;;;1.63;100.00;102298.31;5063818;28;20063;-63
2021/11/11 01:29:56;;;;;;;144.80;108.90;;;;;;;1.56;100.00;102301.34;5063783;28;20021;-63
2021/11/11 01:32:21;;;;;;;127.50;98.07;;;;;;;1.63;100.00;102300.00;5065233;28;20028;-64
2021/11/11 01:34:46;;;;;;;116.13;86.07;;;;;;;1.55;100.00;102305.63;5062413;28;20104;-63
2021/11/11 01:37:12;;;;;;;112.45;87.85;;;;;;;1.54;100.00;102306.47;5065705;28;20032;-64
2021/11/11 01:39:37;;;;;;;116.40;91.40;;;;;;;1.50;100.00;102311.34;5062650;28;20036;-63
2021/11/11 01:42:03;;;;;;;110.80;84.53;;;;;;;1.61;100.00;102315.56;5064612;28;20036;-63
2021/11/11 01:44:28;;;;;;;117.35;88.03;;;;;;;1.72;100.00;102311.94;5062898;28;20476;-63
2021/11/11 01:46:54;;;;;;;125.85;94.90;;;;;;;1.81;100.00;102313.34;5063341;28;20468;-64
2021/11/11 01:49:19;;;;;;;102.78;76.57;;;;;;;1.85;100.00;102295.38;5064972;28;20032;-63
2021/11/11 01:51:47;;;;;;;123.88;95.50;;;;;;;1.83;100.00;102298.66;5060534;28;20033;-63
2021/11/11 01:54:13;;;;;;;128.13;94.57;;;;;;;1.80;100.00;102303.69;5062246;28;20070;-64
2021/11/11 01:56:39;;;;;;;140.00;106.13;;;;;;;1.79;100.00;102305.41;5065315;28;20024;-63
2021/11/11 01:59:04;;;;;;;132.45;96.88;;;;;;;1.83;100.00;102294.34;5062481;28;20502;-63
2021/11/11 02:01:30;;;;;;;122.57;91.65;;;;;;;1.93;100.00;102295.84;5063784;28;20029;-63
2021/11/11 02:03:55;;;;;;;121.40;92.25;;;;;;;2.00;100.00;102295.41;5063721;28;20032;-64
2021/11/11 02:06:21;;;;;;;137.57;101.80;;;;;;;2.12;100.00;102299.59;5062135;28;20483;-64
2021/11/11 02:08:47;;;;;;;120.32;92.72;;;;;;;2.08;100.00;102294.19;5063900;28;20024;-63
2021/11/11 02:11:13;;;;;;;114.65;89.10;;;;;;;2.16;100.00;102286.84;5061599;28;20025;-63
2021/11/11 02:13:38;;;;;;;117.45;88.88;;;;;;;2.26;100.00;102289.19;5064662;28;20158;-66
2021/11/11 02:16:04;;;;;;;120.30;92.65;;;;;;;2.35;100.00;102285.34;5062739;28;20029;-64
2021/11/11 02:18:29;;;;;;;117.40;89.03;;;;;;;2.42;100.00;102284.94;5063087;28;20021;-64
2021/11/11 02:20:55;;;;;;;121.35;92.75;;;;;;;2.49;100.00;102286.19;5063113;28;20031;-64
2021/11/11 02:23:21;;;;;;;116.30;88.43;;;;;;;2.51;100.00;102282.84;5061984;28;20021;-64
2021/11/11 02:25:47;;;;;;;119.00;90.43;;;;;;;2.57;100.00;102285.81;5064629;28;20025;-64
2021/11/11 02:28:16;;;;;;;118.03;87.82;;;;;;;2.63;100.00;102285.28;5061079;28;20408;-68
2021/11/11 02:30:43;;;;;;;115.38;86.15;;;;;;;2.66;100.00;102268.91;5064734;28;20086;-71
2021/11/11 02:33:17;;;;;;;110.53;83.93;;;;;;;2.63;100.00;102264.41;5061516;28;20021;-68
2021/11/11 02:35:42;;;;;;;120.13;86.75;;;;;;;2.61;100.00;102266.94;5061074;28;20025;-68
2021/11/11 02:38:09;;;;;;;113.60;82.20;;;;;;;2.62;100.00;102270.44;5062900;28;20039;-68
2021/11/11 02:40:35;;;;;;;120.63;87.00;;;;;;;2.62;100.00;102273.03;5062165;28;20024;-69
2021/11/11 02:43:00;;;;;;;116.90;86.60;;;;;;;2.60;100.00;102266.84;5061953;28;20040;-69
2021/11/11 02:45:33;;;;;;;118.00;85.35;;;;;;;2.63;100.00;102260.91;5063356;28;20043;-68
2021/11/11 02:47:59;;;;;;;120.28;83.18;;;;;;;2.68;100.00;102251.63;5061499;28;20049;-69
2021/11/11 02:50:28;;;;;;;110.32;80.13;;;;;;;2.73;100.00;102253.69;5063156;28;20028;-69
2021/11/11 02:52:55;;;;;;;115.28;77.03;;;;;;;2.76;100.00;102250.38;5062087;28;20033;-69
2021/11/11 02:55:20;;;;;;;113.82;76.35;;;;;;;2.82;100.00;102260.28;5064117;28;20103;-69
2021/11/11 02:57:47;;;;;;;111.82;75.78;;;;;;;2.85;100.00;102265.69;5061166;28;20021;-66
2021/11/11 03:00:25;;;;;;;108.78;73.88;;;;;;;2.89;100.00;102262.44;5061233;28;20543;-68
2021/11/11 03:02:51;;;;;;;105.43;72.88;;;;;;;2.91;100.00;102261.72;5061534;28;20029;-69
2021/11/11 03:05:20;;;;;;;108.85;72.63;;;;;;;2.93;100.00;102265.31;5064199;28;20476;-69
2021/11/11 03:07:46;;;;;;;113.90;73.57;;;;;;;2.93;100.00;102262.69;5060779;28;20041;-68
2021/11/11 03:10:15;;;;;;;107.68;73.38;;;;;;;2.91;100.00;102260.81;5064296;28;20066;-69
2021/11/11 03:12:41;;;;;;;111.20;72.07;;;;;;;2.88;100.00;102265.84;5060907;28;20047;-70
2021/11/11 03:15:07;;;;;;;106.25;72.85;;;;;;;2.88;100.00;102266.75;5063319;28;20029;-72
2021/11/11 03:17:33;;;;;;;111.82;76.00;;;;;;;2.85;100.00;102263.06;5062027;28;20483;-68
2021/11/11 03:19:58;;;;;;;107.28;72.97;;;;;;;2.87;100.00;102259.75;5062020;28;20021;-69
2021/11/11 03:22:24;;;;;;;103.30;69.78;;;;;;;2.88;100.00;102263.25;5063316;28;20036;-72
2021/11/11 03:24:52;;;;;;;106.22;69.43;;;;;;;2.88;100.00;102269.34;5061428;28;20048;-70
2021/11/11 03:27:19;;;;;;;103.82;64.93;;;;;;;2.96;100.00;102262.88;5063950;28;20133;-71
2021/11/11 03:29:48;;;;;;;101.45;66.82;;;;;;;2.97;100.00;102259.47;5060516;28;20025;-70
2021/11/11 03:32:14;;;;;;;101.75;65.63;;;;;;;2.99;100.00;102256.94;5061441;28;20021;-68
2021/11/11 03:34:40;;;;;;;98.18;61.05;;;;;;;3.05;100.00;102269.44;5067464;28;20103;-62
2021/11/11 03:37:07;;;;;;;105.30;64.82;;;;;;;3.06;100.00;102266.94;5065367;28;20064;-63
2021/11/11 03:39:32;;;;;;;98.57;62.25;;;;;;;3.14;100.00;102273.47;5066540;28;20085;-61
2021/11/11 03:41:58;;;;;;;96.43;62.67;;;;;;;3.19;100.00;102272.84;5065200;28;20025;-62
2021/11/11 03:44:24;;;;;;;91.22;59.05;;;;;;;3.20;100.00;102266.81;5064248;28;20033;-62
2021/11/11 03:46:53;;;;;;;92.68;59.75;;;;;;;3.22;100.00;102275.63;5067556;28;20021;-61
2021/11/11 03:49:20;;;;;;;91.45;60.25;;;;;;;3.24;100.00;102255.72;5064364;28;20472;-64
2021/11/11 03:51:45;;;;;;;94.25;59.83;;;;;;;3.26;100.00;102254.09;5067622;28;20529;-65
2021/11/11 03:54:13;;;;;;;88.32;57.15;;;;;;;3.27;100.00;102261.13;5064835;28;20029;-62
2021/11/11 03:56:41;;;;;;;97.70;59.67;;;;;;;3.27;100.00;102258.50;5067047;28;20021;-66
2021/11/11 03:59:07;;;;;;;88.20;57.90;;;;;;;3.27;100.00;102262.00;5064803;28;20028;-63
2021/11/11 04:01:32;;;;;;;95.97;58.03;;;;;;;3.28;100.00;102268.16;5066193;28;20031;-64
2021/11/11 04:03:58;;;;;;;85.57;56.25;;;;;;;3.33;100.00;102266.69;5065842;28;20024;-61
2021/11/11 04:06:23;;;;;;;91.63;58.28;;;;;;;3.35;100.00;102257.25;5064991;28;20025;-67
2021/11/11 04:08:48;;;;;;;92.80;58.33;;;;;;;3.36;100.00;102260.75;5067409;28;20394;-63
2021/11/11 04:11:13;;;;;;;88.70;55.25;;;;;;;3.35;100.00;102262.47;5064127;28;20363;-61
2021/11/11 04:13:39;;;;;;;87.38;55.08;;;;;;;3.37;100.00;102266.06;5066752;28;20032;-61
2021/11/11 04:16:05;;;;;;;89.70;55.05;;;;;;;3.39;100.00;102266.13;5064965;28;20012;-63
2021/11/11 04:18:31;;;;;;;87.55;53.78;;;;;;;3.42;100.00;102266.31;5065298;28;20025;-62
2021/11/11 04:20:57;;;;;;;83.65;54.03;;;;;;;3.44;100.00;102270.81;5065968;28;20039;-65
2021/11/11 04:23:24;;;;;;;85.70;53.13;;;;;;;3.51;100.00;102263.31;5062914;28;20021;-62
2021/11/11 04:28:23;;;;;;;88.05;54.25;;;;;;;3.52;100.00;102257.28;5063587;28;20132;-63
2021/11/11 04:30:53;;;;;;;84.97;52.30;;;;;;;3.53;100.00;102253.84;5064087;28;20033;-63
2021/11/11 04:33:18;;;;;;;86.50;53.55;;;;;;;3.54;100.00;102256.56;5066863;28;20025;-61
2021/11/11 04:35:48;;;;;;;87.35;53.28;;;;;;;3.55;100.00;102254.81;5063310;28;20025;-62
2021/11/11 05:04:26;;;;;;;79.78;51.75;;;;;;;3.82;100.00;102269.41;5022048;28;20034;-65
2021/11/11 05:06:53;;;;;;;85.72;52.72;;;;;;;3.82;100.00;102272.03;5023722;28;20163;-62
2021/11/11 05:09:18;;;;;;;83.15;51.28;;;;;;;3.86;100.00;102260.03;5020937;28;20044;-62
2021/11/11 05:11:44;;;;;;;88.28;53.80;;;;;;;3.84;100.00;102270.41;5024388;28;20021;-63
2021/11/11 05:14:09;;;;;;;84.15;52.03;;;;;;;3.87;100.00;102271.38;5021230;28;20598;-63
2021/11/11 05:16:34;;;;;;;86.05;51.65;;;;;;;3.90;100.00;102275.06;5023189;28;20034;-62
2021/11/11 05:19:00;;;;;;;90.05;53.40;;;;;;;3.91;100.00;102276.88;5022447;28;20039;-61
2021/11/11 05:21:25;;;;;;;83.20;51.40;;;;;;;3.93;100.00;102283.09;5021861;28;20417;-63
2021/11/11 05:23:50;;;;;;;81.53;51.80;;;;;;;3.94;100.00;102278.75;5060461;28;20041;-62
2021/11/11 05:26:16;;;;;;;94.30;54.75;;;;;;;3.93;100.00;102287.41;5066160;28;20021;-62
2021/11/11 05:28:42;;;;;;;81.65;51.78;;;;;;;3.93;100.00;102279.56;5062643;28;20037;-61
2021/11/11 05:31:07;;;;;;;77.05;51.28;;;;;;;3.94;100.00;102287.50;5065017;28;20484;-62
2021/11/11 05:33:33;;;;;;;83.72;52.65;;;;;;;3.97;100.00;102284.16;5063653;28;20048;-63
2021/11/11 05:35:59;;;;;;;84.82;52.97;;;;;;;3.98;100.00;102286.84;5063891;28;20021;-61
2021/11/11 05:38:24;;;;;;;87.60;53.00;;;;;;;4.02;100.00;102290.56;5064741;28;20021;-62
2021/11/11 05:40:50;;;;;;;85.97;52.55;;;;;;;4.03;100.00;102289.72;5062141;28;20033;-61
2021/11/11 05:43:15;;;;;;;85.13;52.15;;;;;;;4.03;100.00;102300.19;5065881;28;20032;-62
2021/11/11 05:45:40;;;;;;;80.13;53.00;;;;;;;4.03;100.00;102294.06;5062457;28;20028;-63
2021/11/11 05:48:06;;;;;;;79.05;52.25;;;;;;;4.00;100.00;102290.47;5064283;28;20025;-62
2021/11/11 05:50:31;;;;;;;83.50;52.35;;;;;;;4.02;100.00;102287.94;5064140;28;20024;-64
2021/11/11 05:52:57;;;;;;;85.38;52.92;;;;;;;4.08;100.00;102292.56;5063030;28;20431;-62
2021/11/11 05:55:22;;;;;;;83.47;52.65;;;;;;;4.05;100.00;102290.72;5063826;28;20021;-61
2021/11/11 05:57:48;;;;;;;79.10;51.97;;;;;;;4.06;100.00;102291.59;5062265;28;20100;-62
2021/11/11 06:00:16;;;;;;;82.97;52.20;;;;;;;4.09;100.00;102297.00;5065657;28;20140;-61
2021/11/11 06:02:44;;;;;;;85.20;52.90;;;;;;;4.09;100.00;102305.78;5062212;28;20021;-62
2021/11/11 06:05:10;;;;;;;80.90;52.22;;;;;;;4.12;100.00;102311.16;5064820;28;20027;-62
2021/11/11 06:07:36;;;;;;;78.95;51.45;;;;;;;4.13;100.00;102307.72;5062827;28;20021;-63
2021/11/11 06:10:02;;;;;;;82.35;52.70;;;;;;;4.12;100.00;102310.25;5063380;28;20017;-63
2021/11/11 06:12:28;;;;;;;80.55;48.63;;;;;;;4.12;100.00;102316.41;5064069;28;20032;-63
2021/11/11 06:14:53;;;;;;;75.45;48.50;;;;;;;4.11;100.00;102319.84;5062402;28;20094;-63
2021/11/11 06:17:18;;;;;;;81.63;48.92;;;;;;;4.09;100.00;102313.63;5065019;28;20073;-63
2021/11/11 06:19:45;;;;;;;78.40;49.33;;;;;;;4.08;100.00;102309.19;5061619;28;20029;-63
2021/11/11 06:22:11;;;;;;;83.53;47.97;;;;;;;4.09;100.00;102310.09;5064587;28;20025;-63
2021/11/11 06:24:36;;;;;;;78.45;49.00;;;;;;;4.09;100.00;102320.56;5062389;28;20506;-63
2021/11/11 06:27:03;;;;;;;78.70;49.50;;;;;;;4.09;100.00;102324.09;5063069;28;20052;-63
2021/11/11 06:29:28;;;;;;;79.72;49.83;;;;;;;4.11;100.00;102329.41;5063272;28;20028;-63
2021/11/11 06:31:54;;;;;;;78.07;49.03;;;;;;;4.11;100.00;102332.03;5062023;28;20021;-63
2021/11/11 06:34:19;;;;;;;75.70;48.65;;;;;;;4.13;100.00;102339.13;5064917;28;20017;-63
2021/11/11 06:36:44;;;;;;;78.00;49.33;;;;;;;4.15;100.00;102331.34;5061193;28;20104;-63
2021/11/11 06:39:10;;;;;;;71.40;45.92;;;;;;;4.17;100.00;102328.00;5064043;28;20116;-63
2021/11/11 06:41:35;;;;;;;77.15;48.42;;;;;;;4.16;100.00;102339.28;5062126;28;20062;-63
2021/11/11 06:44:01;;;;;;;76.35;48.22;;;;;;;4.16;100.00;102339.28;5062615;28;20023;-64
2021/11/11 06:46:26;;;;;;;80.72;49.42;;;;;;;4.19;100.00;102336.88;5062239;28;20107;-62
2021/11/11 06:48:52;;;;;;;82.57;50.08;;;;;;;4.22;100.00;102345.69;5067564;28;20029;-63
2021/11/11 06:51:18;;;;;;;83.55;50.00;;;;;;;4.23;100.00;102344.88;5071416;28;20422;-63
2021/11/11 06:53:44;;;;;;;76.07;48.15;;;;;;;4.23;100.00;102351.00;5065038;28;20033;-61
2021/11/11 06:56:09;;;;;;;82.05;49.13;;;;;;;4.22;100.00;102348.31;5063527;28;20090;-61
2021/11/11 06:58:35;;;;;;;75.20;48.13;;;;;;;4.27;100.00;102352.97;5071228;28;20082;-62
2021/11/11 07:01:02;;;;;;;80.57;50.28;;;;;;;4.29;100.00;102346.09;5068994;28;20115;-63
2021/11/11 07:03:29;;;;;;;73.95;48.22;;;;;;;4.29;100.00;102356.56;5070987;28;20086;-63
2021/11/11 07:05:55;;;;;;;76.30;46.53;;;;;;;4.27;100.00;102355.59;5063850;28;20823;-62
2021/11/11 07:08:21;;;;;;;77.13;48.20;;;;;;;4.27;100.00;102360.81;5064934;28;20028;-62
2021/11/11 07:10:50;;;;;;;81.85;49.05;;;;;;;4.30;100.00;102360.09;5071107;28;20090;-63
2021/11/11 07:13:16;;;;;;;80.32;48.88;;;;;;;4.33;100.00;102363.78;5071784;28;20062;-62
2021/11/11 07:15:43;;;;;;;73.72;48.00;;;;;;;4.35;100.00;102359.53;5070955;28;20176;-62
2021/11/11 07:18:11;;;;;;;79.07;49.47;;;;;;;4.38;100.00;102355.25;5069807;28;20029;-62
2021/11/11 07:20:40;;;;;;;79.47;49.17;;;;;;;4.38;100.00;102357.88;5071072;28;20387;-62
2021/11/11 07:23:06;;;;;;;79.57;50.58;;;;;;;4.38;100.00;102360.50;5071076;28;20086;-62
2021/11/11 07:25:32;;;;;;;81.00;48.67;;;;;;;4.38;100.00;102355.25;5065832;28;20027;-62
2021/11/11 07:27:58;;;;;;;75.80;47.15;;;;;;;4.40;100.00;102353.63;5070980;28;20040;-62
2021/11/11 07:30:25;;;;;;;78.68;49.72;;;;;;;4.41;100.00;102352.81;5070753;28;20475;-62
2021/11/11 07:32:52;;;;;;;78.43;50.13;;;;;;;4.42;100.00;102352.00;5071054;28;20082;-62
2021/11/11 07:35:18;;;;;;;73.68;47.75;;;;;;;4.45;100.00;102358.28;5070980;28;20025;-62
2021/11/11 07:37:47;;;;;;;76.60;49.08;;;;;;;4.48;100.00;102357.56;5070587;28;20069;-61
2021/11/11 07:40:15;;;;;;;77.32;49.10;;;;;;;4.54;100.00;102360.50;5070483;28;20028;-61
2021/11/11 07:42:42;;;;;;;77.10;48.85;;;;;;;4.57;100.00;102358.03;5071322;28;20474;-62
2021/11/11 07:45:10;;;;;;;80.28;49.20;;;;;;;4.59;100.00;102360.72;5071093;28;20036;-63
2021/11/11 07:47:36;;;;;;;77.00;49.50;;;;;;;4.61;100.00;102366.97;5070637;28;20025;-62
2021/11/11 07:50:04;;;;;;;78.07;50.00;;;;;;;4.67;100.00;102364.66;5070678;28;20356;-63
2021/11/11 07:52:29;;;;;;;73.72;48.75;;;;;;;4.68;100.00;102361.25;5070762;28;20529;-63
2021/11/11 07:54:58;;;;;;;77.05;50.38;;;;;;;4.70;100.00;102371.00;5067716;28;20052;-62
2021/11/11 07:57:26;;;;;;;74.40;48.10;;;;;;;4.73;100.00;102378.09;5064359;28;20081;-63
2021/11/11 07:59:53;;;;;;;72.03;46.20;;;;;;;4.76;100.00;102370.41;5068502;28;20033;-63
2021/11/11 08:02:20;;;;;;;75.97;48.65;;;;;;;4.78;100.00;102374.00;5070344;28;20040;-63
2021/11/11 08:04:46;;;;;;;75.40;49.17;;;;;;;4.78;100.00;102376.63;5070830;28;20036;-61
2021/11/11 08:07:12;;;;;;;75.93;47.55;;;;;;;4.77;100.00;102369.56;5070129;28;20021;-62
2021/11/11 08:09:38;;;;;;;74.80;47.67;;;;;;;4.77;100.00;102374.81;5070692;28;20170;-62
2021/11/11 08:12:04;;;;;;;75.15;48.40;;;;;;;4.79;100.00;102370.56;5070565;28;20099;-63
2021/11/11 08:14:29;;;;;;;75.15;48.67;;;;;;;4.82;100.00;102365.50;5070527;28;20478;-61
2021/11/11 08:16:55;;;;;;;70.10;46.33;;;;;;;4.85;100.00;102365.66;5064297;28;20025;-62
2021/11/11 08:19:22;;;;;;;72.53;47.20;;;;;;;4.91;100.00;102370.31;5067142;28;20036;-63
2021/11/11 08:21:47;;;;;;;74.88;46.35;;;;;;;4.96;100.00;102374.03;5068281;28;20024;-63
2021/11/11 08:24:13;;;;;;;70.50;46.17;;;;;;;5.01;100.00;102379.53;5070184;28;20021;-61
2021/11/11 08:26:38;;;;;;;74.80;48.53;;;;;;;5.05;100.00;102373.63;5067656;28;20464;-61
2021/11/11 08:29:04;;;;;;;75.30;47.03;;;;;;;5.10;100.00;102371.22;5063708;28;20541;-61
2021/11/11 08:31:29;;;;;;;70.53;47.10;;;;;;;5.09;100.00;102379.94;5065451;28;20025;-62
2021/11/11 08:33:55;;;;;;;69.32;46.22;;;;;;;5.07;100.00;102372.00;5067775;28;20070;-62
2021/11/11 08:36:21;;;;;;;75.70;47.35;;;;;;;5.08;100.00;102371.16;5069418;28;20044;-61
2021/11/11 08:38:46;;;;;;;75.00;47.08;;;;;;;5.06;100.00;102376.31;5073331;28;20115;-61
2021/11/11 08:41:12;;;;;;;70.88;47.88;;;;;;;5.09;100.00;102365.09;5073376;28;20090;-61
2021/11/11 08:43:38;;;;;;;71.70;49.28;;;;;;;5.14;100.00;102370.56;5073498;28;20034;-61
2021/11/11 08:46:04;;;;;;;71.07;47.50;;;;;;;5.17;100.00;102365.47;5073804;28;20021;-61
2021/11/11 08:48:29;;;;;;;74.07;47.80;;;;;;;5.20;100.00;102363.94;5073479;28;20086;-62
2021/11/11 08:50:56;;;;;;;73.20;46.35;;;;;;;5.22;100.00;102366.63;5073892;28;20029;-64
2021/11/11 08:53:21;;;;;;;70.18;46.08;;;;;;;5.27;100.00;102369.47;5073691;28;20502;-64
2021/11/11 08:55:47;;;;;;;74.03;46.40;;;;;;;5.30;100.00;102369.63;5073572;28;20104;-63
2021/11/11 08:58:12;;;;;;;69.43;47.70;;;;;;;5.37;100.00;102367.41;5073018;28;20028;-64
2021/11/11 09:00:50;;;;;;;69.07;45.60;;;;;;;5.47;100.00;102357.34;5067224;28;20483;-63
2021/11/11 09:03:17;;;;;;;67.65;43.88;;;;;;;5.47;100.00;102360.88;5063326;28;20039;-63
2021/11/11 09:05:43;;;;;;;70.35;45.92;;;;;;;5.57;100.00;102362.22;5072612;28;20078;-66
2021/11/11 09:08:10;;;;;;;63.72;42.75;;;;;;;5.65;100.00;102355.66;5072883;28;20363;-66
2021/11/11 09:10:38;;;;;;;65.80;42.72;;;;;;;5.79;100.00;102350.16;5073180;28;20082;-63
2021/11/11 09:13:03;;;;;;;67.15;44.17;;;;;;;5.94;100.00;102353.50;5072919;28;20024;-63
2021/11/11 09:15:29;;;;;;;63.35;44.25;;;;;;;6.07;100.00;102355.00;5073000;28;20382;-63
2021/11/11 09:17:56;;;;;;;65.43;42.83;;;;;;;6.21;100.00;102355.66;5073653;28;20029;-63
2021/11/11 09:20:23;;;;;;;63.67;43.13;;;;;;;6.30;100.00;102361.34;5073065;28;20375;-63
2021/11/11 09:22:50;;;;;;;60.33;41.03;;;;;;;6.40;100.00;102368.81;5072683;28;20028;-63
2021/11/11 09:25:16;;;;;;;56.47;37.80;;;;;;;6.52;100.00;102372.81;5072892;28;20048;-63
2021/11/11 09:27:43;;;;;;;57.58;40.03;;;;;;;6.45;100.00;102366.38;5072224;28;20071;-64
2021/11/11 09:30:23;;;;;;;57.78;39.83;;;;;;;6.55;100.00;102373.88;5072799;28;20074;-72
2021/11/11 09:32:49;;;;;;;60.28;39.40;;;;;;;6.58;100.00;102368.75;5072345;28;20426;-69
2021/11/11 09:35:15;;;;;;;59.00;39.78;;;;;;;6.68;100.00;102370.03;5072788;28;20078;-69
2021/11/11 09:37:41;;;;;;;55.60;37.83;;;;;;;6.73;100.00;102367.66;5065388;28;20020;-75
2021/11/11 09:40:11;;;;;;;55.25;38.22;;;;;;;6.79;100.00;102373.16;5062793;28;20036;-66
2021/11/11 09:42:37;;;;;;;60.45;39.25;;;;;;;6.83;100.00;102369.84;5064629;28;20107;-67
2021/11/11 09:45:05;;;;;;;63.60;40.55;;;;;;;6.87;100.00;102376.13;5063383;28;20028;-73
2021/11/11 09:47:32;;;;;;;61.70;39.72;;;;;;;6.94;99.79;102378.19;5062195;28;20060;-75
2021/11/11 09:49:57;;;;;;;55.03;38.28;;;;;;;6.98;98.38;102385.38;5064705;28;20372;-72
2021/11/11 09:52:23;;;;;;;53.28;37.95;;;;;;;7.04;98.44;102390.03;5062617;28;20025;-72
2021/11/11 10:00:17;;;;;;;58.00;39.20;;;;;;;7.19;97.11;102382.78;5064171;28;20089;-74
2021/11/11 10:02:43;;;;;;;55.72;37.55;;;;;;;7.24;96.30;102383.88;5060323;28;20110;-73
2021/11/11 10:05:10;;;;;;;54.53;37.80;;;;;;;7.29;95.45;102376.19;5064157;28;20020;-65
2021/11/11 10:07:35;;;;;;;53.72;36.85;;;;;;;7.38;97.34;102381.81;5064794;28;20025;-62
2021/11/11 10:10:00;;;;;;;54.33;38.03;;;;;;;7.47;94.02;102376.03;5070503;28;20062;-62
2021/11/11 10:12:26;;;;;;;53.45;36.05;;;;;;;7.52;93.35;102374.50;5070853;28;20027;-62
2021/11/11 10:15:09;;;;;;;52.70;35.60;;;;;;;7.53;94.18;102371.06;5071369;28;20485;-63
2021/11/11 10:17:42;;;;;;;52.05;36.08;;;;;;;7.58;94.42;102369.50;5069824;28;20082;-61
2021/11/11 10:20:09;;;;;;;54.47;36.67;;;;;;;7.61;95.38;102384.50;5071062;28;20039;-61
2021/11/11 10:22:36;;;;;;;53.10;36.38;;;;;;;7.71;93.49;102383.16;5071421;28;20021;-61
2021/11/11 10:25:06;;;;;;;55.90;37.47;;;;;;;7.74;94.03;102392.06;5071881;28;20418;-60
2021/11/11 10:27:42;;;;;;;54.50;36.45;;;;;;;7.73;92.07;102392.00;5071395;28;20040;-67
2021/11/11 10:30:25;;;;;;;53.15;36.42;;;;;;;7.70;92.87;102389.25;5070758;28;20060;-61
2021/11/11 10:32:53;;;;;;;;;;;;;;;7.76;93.89;102382.53;5070793;28;20024;-62
2021/11/11 10:35:21;;;;;;;54.75;37.08;;;;;;;7.81;92.26;102390.59;5070442;28;19919;-65
2021/11/11 10:38:00;;;;;;;50.47;35.50;;;;;;;7.83;92.43;102386.28;5071564;28;20137;-66
2021/11/11 10:40:47;;;;;;;52.85;35.10;;;;;;;7.85;91.50;102387.25;5070306;28;20036;-65
2021/11/11 10:43:21;;;;;;;50.97;35.33;;;;;;;7.87;89.85;102387.31;5069837;28;20037;-65
2021/11/11 10:45:51;;;;;;;54.92;36.17;;;;;;;7.89;89.77;102389.16;5063826;28;20067;-62
2021/11/11 10:48:23;;;;;;;50.90;34.58;;;;;;;8.00;90.17;102386.97;5063397;28;20467;-66
2021/11/11 10:50:51;;;;;;;48.50;32.53;;;;;;;8.05;87.78;102385.38;5062662;28;20069;-66
2021/11/11 10:53:24;;;;;;;50.10;33.38;;;;;;;8.07;88.10;102385.44;5062706;28;20280;-64
2021/11/11 10:55:54;;;;;;;48.63;33.65;;;;;;;8.14;89.06;102377.88;5062027;28;20375;-62
2021/11/11 10:58:23;;;;;;;49.08;31.88;;;;;;;8.17;86.32;102371.81;5062687;28;20108;-67
2021/11/11 11:00:57;;;;;;;49.22;32.70;;;;;;;8.18;87.83;102370.97;5062396;28;20103;-68
2021/11/11 11:03:27;;;;;;;46.80;31.80;;;;;;;8.17;86.79;102374.47;5063872;28;20071;-65
2021/11/11 11:05:57;;;;;;;49.08;31.77;;;;;;;8.25;86.98;102383.53;5061599;28;20020;-68
2021/11/11 11:08:24;;;;;;;48.05;31.52;;;;;;;8.28;85.45;102369.59;5063332;28;20032;-67
2021/11/11 11:10:58;;;;;;;47.90;32.35;;;;;;;8.35;86.00;102366.34;5062455;28;20017;-65
2021/11/11 11:13:28;;;;;;;48.00;31.25;;;;;;;8.51;84.78;102370.50;5061237;28;20384;-62
2021/11/11 11:15:57;;;;;;;47.13;31.70;;;;;;;8.63;85.03;102373.56;5070809;28;20028;-61
2021/11/11 11:18:38;;;;;;;45.30;29.70;;;;;;;8.68;83.86;102372.00;5068765;28;20095;-61
2021/11/11 11:21:14;;;;;;;46.03;30.88;;;;;;;8.71;83.20;102372.13;5070411;28;20032;-62
2021/11/11 11:23:50;;;;;;;47.50;30.40;;;;;;;8.79;83.02;102369.75;5071263;28;20036;-61
2021/11/11 11:26:21;;;;;;;44.08;28.75;;;;;;;8.85;82.23;102366.44;5071297;28;20082;-61
2021/11/11 11:28:49;;;;;;;44.47;29.67;;;;;;;8.90;80.90;102355.22;5070871;28;20040;-62
2021/11/11 11:31:40;;;;;;;44.42;28.88;;;;;;;8.97;79.84;102355.41;5071072;28;20043;-62
2021/11/11 11:34:08;;;;;;;43.15;27.48;;;;;;;9.04;79.16;102349.50;5070307;28;20032;-62
2021/11/11 11:36:38;;;;;;;44.75;29.52;;;;;;;8.96;78.23;102357.16;5070543;28;20031;-62
2021/11/11 11:39:06;;;;;;;42.53;27.77;;;;;;;9.06;79.40;102354.00;5071108;28;20047;-62
2021/11/11 11:41:43;;;;;;;43.60;27.42;;;;;;;9.15;79.00;102363.09;5070565;28;20040;-63
2021/11/11 11:44:32;;;;;;;45.15;29.27;;;;;;;9.10;79.46;102355.03;5070583;28;20017;-60